sensor_id;sensor_type;location;lat;lon;timestamp;pressure;altitude;pressure_sealevel;temperature;humidity
62978;BME280;49073;42.352;23.808;2022-11-23T00:01:24;93479.44;;;6.54;89.85
62978;BME280;49073;42.352;23.808;2022-11-23T00:04:25;93446.03;;;6.46;90.81
62978;BME280;49073;42.352;23.808;2022-11-23T00:07:27;93449.19;;;6.55;91.31
62978;BME280;49073;42.352;23.808;2022-11-23T00:10:27;93470.06;;;6.61;91.99
62978;BME280;49073;42.352;23.808;2022-11-23T00:13:28;93460.53;;;6.56;91.81
62978;BME280;49073;42.352;23.808;2022-11-23T00:16:29;93464.91;;;6.72;91.05
62978;BME280;49073;42.352;23.808;2022-11-23T00:19:30;93459.97;;;6.70;91.00
62978;BME280;49073;42.352;23.808;2022-11-23T00:22:30;93460.38;;;6.72;91.44
62978;BME280;49073;42.352;23.808;2022-11-23T00:25:31;93457.72;;;6.72;91.54
62978;BME280;49073;42.352;23.808;2022-11-23T00:28:32;93458.03;;;6.67;91.78
62978;BME280;49073;42.352;23.808;2022-11-23T00:31:34;93435.91;;;6.52;92.51
62978;BME280;49073;42.352;23.808;2022-11-23T00:34:34;93435.91;;;6.52;93.15
62978;BME280;49073;42.352;23.808;2022-11-23T00:37:35;93435.56;;;6.53;93.08
62978;BME280;49073;42.352;23.808;2022-11-23T00:40:35;93459.88;;;6.63;92.83
62978;BME280;49073;42.352;23.808;2022-11-23T00:43:36;93440.78;;;6.50;92.55
62978;BME280;49073;42.352;23.808;2022-11-23T00:46:36;93458.09;;;6.44;92.82
62978;BME280;49073;42.352;23.808;2022-11-23T00:49:37;93460.19;;;6.58;92.43
62978;BME280;49073;42.352;23.808;2022-11-23T00:52:37;93455.63;;;6.54;92.81
62978;BME280;49073;42.352;23.808;2022-11-23T00:55:38;93458.28;;;6.58;92.99
62978;BME280;49073;42.352;23.808;2022-11-23T00:58:39;93459.59;;;6.72;92.11
62978;BME280;49073;42.352;23.808;2022-11-23T01:01:40;93469.94;;;6.80;91.26
62978;BME280;49073;42.352;23.808;2022-11-23T01:04:41;93464.56;;;6.73;91.08
62978;BME280;49073;42.352;23.808;2022-11-23T01:07:41;93480.06;;;6.75;90.90
62978;BME280;49073;42.352;23.808;2022-11-23T01:10:41;93466.66;;;6.91;90.45
62978;BME280;49073;42.352;23.808;2022-11-23T01:13:42;93468.88;;;6.85;90.16
62978;BME280;49073;42.352;23.808;2022-11-23T01:16:43;93468.09;;;6.84;90.79
62978;BME280;49073;42.352;23.808;2022-11-23T01:19:43;93455.19;;;6.79;91.02
62978;BME280;49073;42.352;23.808;2022-11-23T01:22:44;93457.97;;;6.90;90.65
62978;BME280;49073;42.352;23.808;2022-11-23T01:25:44;93455.34;;;6.94;89.71
62978;BME280;49073;42.352;23.808;2022-11-23T01:28:45;93461.03;;;6.96;89.74
62978;BME280;49073;42.352;23.808;2022-11-23T01:31:46;93466.47;;;7.07;89.41
62978;BME280;49073;42.352;23.808;2022-11-23T01:34:46;93471.63;;;6.96;89.36
62978;BME280;49073;42.352;23.808;2022-11-23T01:37:46;93473.03;;;6.86;90.04
62978;BME280;49073;42.352;23.808;2022-11-23T01:40:47;93476.53;;;6.94;90.49
62978;BME280;49073;42.352;23.808;2022-11-23T01:43:48;93482.28;;;6.99;90.50
62978;BME280;49073;42.352;23.808;2022-11-23T01:46:49;93467.16;;;7.00;90.18
62978;BME280;49073;42.352;23.808;2022-11-23T01:49:51;93462.31;;;7.06;90.24
62978;BME280;49073;42.352;23.808;2022-11-23T01:52:52;93470.88;;;6.95;91.04
62978;BME280;49073;42.352;23.808;2022-11-23T01:55:54;93462.56;;;6.97;91.10
62978;BME280;49073;42.352;23.808;2022-11-23T01:58:59;93467.53;;;6.98;91.00
62978;BME280;49073;42.352;23.808;2022-11-23T02:02:03;93461.03;;;6.96;91.68
62978;BME280;49073;42.352;23.808;2022-11-23T02:05:05;93458.84;;;7.02;92.03
62978;BME280;49073;42.352;23.808;2022-11-23T02:08:06;93468.31;;;7.03;92.01
62978;BME280;49073;42.352;23.808;2022-11-23T02:11:07;93449.53;;;7.15;91.89
62978;BME280;49073;42.352;23.808;2022-11-23T02:14:09;93449.41;;;7.04;91.87
62978;BME280;49073;42.352;23.808;2022-11-23T02:17:10;93461.28;;;7.14;92.05
62978;BME280;49073;42.352;23.808;2022-11-23T02:20:14;93458.69;;;7.21;92.11
62978;BME280;49073;42.352;23.808;2022-11-23T02:23:42;93473.00;;;7.13;92.68
62978;BME280;49073;42.352;23.808;2022-11-23T02:26:45;93475.63;;;7.13;92.51
62978;BME280;49073;42.352;23.808;2022-11-23T02:29:47;93474.13;;;7.12;92.18
62978;BME280;49073;42.352;23.808;2022-11-23T02:32:48;93473.72;;;7.10;92.16
62978;BME280;49073;42.352;23.808;2022-11-23T02:35:51;93479.47;;;7.16;91.78
62978;BME280;49073;42.352;23.808;2022-11-23T02:38:52;93470.41;;;7.17;91.40
62978;BME280;49073;42.352;23.808;2022-11-23T02:41:54;93463.88;;;7.10;91.75
62978;BME280;49073;42.352;23.808;2022-11-23T02:48:00;93470.41;;;7.17;92.15
62978;BME280;49073;42.352;23.808;2022-11-23T02:51:01;93458.94;;;7.09;93.22
62978;BME280;49073;42.352;23.808;2022-11-23T02:54:02;93459.66;;;7.06;93.92
62978;BME280;49073;42.352;23.808;2022-11-23T02:57:03;93454.41;;;7.09;94.23
62978;BME280;49073;42.352;23.808;2022-11-23T03:00:04;93457.06;;;7.09;94.86
62978;BME280;49073;42.352;23.808;2022-11-23T03:03:05;93457.75;;;7.06;94.83
62978;BME280;49073;42.352;23.808;2022-11-23T03:06:06;93460.38;;;7.03;95.18
62978;BME280;49073;42.352;23.808;2022-11-23T03:09:07;93471.78;;;7.07;95.11
62978;BME280;49073;42.352;23.808;2022-11-23T03:12:07;93468.81;;;7.12;95.48
62978;BME280;49073;42.352;23.808;2022-11-23T03:15:08;93462.38;;;7.09;95.81
62978;BME280;49073;42.352;23.808;2022-11-23T03:18:10;93456.75;;;7.15;96.09
62978;BME280;49073;42.352;23.808;2022-11-23T03:21:11;93445.44;;;7.18;95.88
62978;BME280;49073;42.352;23.808;2022-11-23T03:24:11;93441.00;;;7.29;95.48
62978;BME280;49073;42.352;23.808;2022-11-23T03:27:12;93437.91;;;7.23;95.28
62978;BME280;49073;42.352;23.808;2022-11-23T03:30:12;93425.44;;;7.24;95.33
62978;BME280;49073;42.352;23.808;2022-11-23T03:33:13;93432.97;;;7.22;95.42
62978;BME280;49073;42.352;23.808;2022-11-23T03:36:13;93434.44;;;7.16;96.06
62978;BME280;49073;42.352;23.808;2022-11-23T03:39:14;93435.25;;;7.23;96.68
62978;BME280;49073;42.352;23.808;2022-11-23T03:42:14;93431.25;;;7.37;95.89
62978;BME280;49073;42.352;23.808;2022-11-23T03:45:15;93424.81;;;7.38;95.75
62978;BME280;49073;42.352;23.808;2022-11-23T03:48:15;93416.88;;;7.38;95.55
62978;BME280;49073;42.352;23.808;2022-11-23T03:51:16;93413.38;;;7.30;95.60
62978;BME280;49073;42.352;23.808;2022-11-23T03:54:16;93410.44;;;7.39;96.00
62978;BME280;49073;42.352;23.808;2022-11-23T03:57:17;93403.97;;;7.36;95.71
62978;BME280;49073;42.352;23.808;2022-11-23T04:00:18;93415.34;;;7.37;95.81
62978;BME280;49073;42.352;23.808;2022-11-23T04:03:18;93422.19;;;7.38;95.79
62978;BME280;49073;42.352;23.808;2022-11-23T04:06:19;93433.13;;;7.36;95.60
62978;BME280;49073;42.352;23.808;2022-11-23T04:09:19;93432.66;;;7.27;95.63
62978;BME280;49073;42.352;23.808;2022-11-23T04:12:20;93421.72;;;7.32;95.67
62978;BME280;49073;42.352;23.808;2022-11-23T04:15:21;93418.41;;;7.42;95.00
62978;BME280;49073;42.352;23.808;2022-11-23T04:18:21;93422.44;;;7.29;94.95
62978;BME280;49073;42.352;23.808;2022-11-23T04:21:22;93419.53;;;7.38;95.05
62978;BME280;49073;42.352;23.808;2022-11-23T04:24:23;93427.75;;;7.29;95.16
62978;BME280;49073;42.352;23.808;2022-11-23T04:27:23;93435.31;;;7.31;95.34
62978;BME280;49073;42.352;23.808;2022-11-23T04:30:24;93431.56;;;7.32;95.47
62978;BME280;49073;42.352;23.808;2022-11-23T04:33:25;93434.53;;;7.26;95.52
62978;BME280;49073;42.352;23.808;2022-11-23T04:36:25;93429.59;;;7.25;95.65
62978;BME280;49073;42.352;23.808;2022-11-23T04:39:26;93432.72;;;7.34;95.54
62978;BME280;49073;42.352;23.808;2022-11-23T04:42:27;93438.78;;;7.35;95.71
62978;BME280;49073;42.352;23.808;2022-11-23T04:45:27;93438.16;;;7.45;95.15
62978;BME280;49073;42.352;23.808;2022-11-23T04:48:28;93442.53;;;7.34;95.15
62978;BME280;49073;42.352;23.808;2022-11-23T04:51:28;93434.19;;;7.28;95.61
62978;BME280;49073;42.352;23.808;2022-11-23T04:54:29;93431.34;;;7.48;95.71
62978;BME280;49073;42.352;23.808;2022-11-23T04:57:29;93441.53;;;7.46;95.08
62978;BME280;49073;42.352;23.808;2022-11-23T05:00:31;93440.41;;;7.47;94.92
62978;BME280;49073;42.352;23.808;2022-11-23T05:03:31;93430.44;;;7.33;95.64
62978;BME280;49073;42.352;23.808;2022-11-23T05:06:35;93426.03;;;7.44;95.92
62978;BME280;49073;42.352;23.808;2022-11-23T05:09:36;93429.41;;;7.45;95.89
62978;BME280;49073;42.352;23.808;2022-11-23T05:12:36;93446.44;;;7.40;96.42
62978;BME280;49073;42.352;23.808;2022-11-23T05:15:37;93428.00;;;7.54;96.19
62978;BME280;49073;42.352;23.808;2022-11-23T05:18:38;93409.88;;;7.60;96.02
62978;BME280;49073;42.352;23.808;2022-11-23T05:21:38;93400.72;;;7.54;96.42
62978;BME280;49073;42.352;23.808;2022-11-23T05:24:39;93400.25;;;7.41;96.75
62978;BME280;49073;42.352;23.808;2022-11-23T05:27:39;93395.63;;;7.34;97.65
62978;BME280;49073;42.352;23.808;2022-11-23T05:30:40;93405.09;;;7.35;98.34
62978;BME280;49073;42.352;23.808;2022-11-23T05:33:40;93397.88;;;7.32;98.74
62978;BME280;49073;42.352;23.808;2022-11-23T05:36:41;93404.75;;;7.37;99.20
62978;BME280;49073;42.352;23.808;2022-11-23T05:39:41;93407.41;;;7.40;99.38
62978;BME280;49073;42.352;23.808;2022-11-23T05:42:42;93410.84;;;7.41;99.64
62978;BME280;49073;42.352;23.808;2022-11-23T05:45:42;93418.81;;;7.45;99.26
62978;BME280;49073;42.352;23.808;2022-11-23T05:48:43;93418.47;;;7.46;98.66
62978;BME280;49073;42.352;23.808;2022-11-23T05:51:44;93418.16;;;7.55;98.06
62978;BME280;49073;42.352;23.808;2022-11-23T05:54:45;93411.31;;;7.54;98.34
62978;BME280;49073;42.352;23.808;2022-11-23T05:57:46;93417.47;;;7.62;98.09
62978;BME280;49073;42.352;23.808;2022-11-23T06:00:46;93413.16;;;7.46;98.59
62978;BME280;49073;42.352;23.808;2022-11-23T06:03:49;93421.13;;;7.46;99.32
62978;BME280;49073;42.352;23.808;2022-11-23T06:06:49;93416.09;;;7.37;99.55
62978;BME280;49073;42.352;23.808;2022-11-23T06:09:50;93420.59;;;7.33;99.99
62978;BME280;49073;42.352;23.808;2022-11-23T06:12:51;93423.31;;;7.37;100.00
62978;BME280;49073;42.352;23.808;2022-11-23T06:15:51;93412.38;;;7.42;100.00
62978;BME280;49073;42.352;23.808;2022-11-23T06:18:52;93413.84;;;7.39;100.00
62978;BME280;49073;42.352;23.808;2022-11-23T06:21:52;93410.53;;;7.50;100.00
62978;BME280;49073;42.352;23.808;2022-11-23T06:24:53;93418.88;;;7.52;99.58
62978;BME280;49073;42.352;23.808;2022-11-23T06:27:58;93406.03;;;7.54;99.67
62978;BME280;49073;42.352;23.808;2022-11-23T06:31:06;93420.78;;;7.51;100.00
62978;BME280;49073;42.352;23.808;2022-11-23T06:34:06;93430.75;;;7.65;100.00
62978;BME280;49073;42.352;23.808;2022-11-23T06:37:07;93424.00;;;7.71;100.00
62978;BME280;49073;42.352;23.808;2022-11-23T06:40:09;93422.47;;;7.70;100.00
62978;BME280;49073;42.352;23.808;2022-11-23T06:43:10;93430.44;;;7.70;100.00
62978;BME280;49073;42.352;23.808;2022-11-23T06:46:10;93429.72;;;7.77;100.00
62978;BME280;49073;42.352;23.808;2022-11-23T06:49:11;93425.94;;;7.75;100.00
62978;BME280;49073;42.352;23.808;2022-11-23T06:52:11;93424.06;;;7.79;100.00
62978;BME280;49073;42.352;23.808;2022-11-23T06:55:13;93408.16;;;7.79;100.00
62978;BME280;49073;42.352;23.808;2022-11-23T06:58:14;93422.47;;;7.70;100.00
62978;BME280;49073;42.352;23.808;2022-11-23T07:01:14;93422.47;;;7.70;100.00
62978;BME280;49073;42.352;23.808;2022-11-23T07:04:15;93418.59;;;7.61;100.00
62978;BME280;49073;42.352;23.808;2022-11-23T07:07:16;93431.47;;;7.62;100.00
62978;BME280;49073;42.352;23.808;2022-11-23T07:10:17;93428.00;;;7.54;100.00
62978;BME280;49073;42.352;23.808;2022-11-23T07:13:17;93432.41;;;7.39;100.00
62978;BME280;49073;42.352;23.808;2022-11-23T07:16:18;93441.19;;;7.47;100.00
62978;BME280;49073;42.352;23.808;2022-11-23T07:19:18;93453.75;;;7.54;100.00
62978;BME280;49073;42.352;23.808;2022-11-23T07:22:19;93457.91;;;7.55;100.00
62978;BME280;49073;42.352;23.808;2022-11-23T07:25:19;93434.06;;;7.55;100.00
62978;BME280;49073;42.352;23.808;2022-11-23T07:28:20;93435.00;;;7.74;100.00
62978;BME280;49073;42.352;23.808;2022-11-23T07:31:20;93428.56;;;7.75;100.00
62978;BME280;49073;42.352;23.808;2022-11-23T07:34:21;93444.56;;;7.85;100.00
62978;BME280;49073;42.352;23.808;2022-11-23T07:37:21;93450.69;;;7.93;100.00
62978;BME280;49073;42.352;23.808;2022-11-23T07:40:22;93463.91;;;7.86;100.00
62978;BME280;49073;42.352;23.808;2022-11-23T07:43:22;93464.25;;;7.84;100.00
62978;BME280;49073;42.352;23.808;2022-11-23T07:46:23;93461.53;;;7.77;100.00
62978;BME280;49073;42.352;23.808;2022-11-23T07:49:23;93463.53;;;7.88;100.00
62978;BME280;49073;42.352;23.808;2022-11-23T07:52:24;93452.63;;;7.96;100.00
62978;BME280;49073;42.352;23.808;2022-11-23T07:55:25;93450.81;;;8.04;100.00
62978;BME280;49073;42.352;23.808;2022-11-23T07:58:27;93450.91;;;8.22;100.00
62978;BME280;49073;42.352;23.808;2022-11-23T08:01:28;93454.38;;;8.26;100.00
62978;BME280;49073;42.352;23.808;2022-11-23T08:04:30;93456.31;;;8.33;100.00
62978;BME280;49073;42.352;23.808;2022-11-23T08:07:31;93455.34;;;8.52;98.18
62978;BME280;49073;42.352;23.808;2022-11-23T08:10:31;93447.69;;;8.47;98.15
62978;BME280;49073;42.352;23.808;2022-11-23T08:13:32;93446.69;;;8.66;97.19
62978;BME280;49073;42.352;23.808;2022-11-23T08:16:36;93439.06;;;8.57;95.96
62978;BME280;49073;42.352;23.808;2022-11-23T08:19:37;93440.97;;;8.57;97.35
62978;BME280;49073;42.352;23.808;2022-11-23T08:22:37;93447.47;;;8.70;97.44
62978;BME280;49073;42.352;23.808;2022-11-23T08:25:37;93452.38;;;8.61;96.59
62978;BME280;49073;42.352;23.808;2022-11-23T08:28:38;93461.44;;;8.56;96.38
62978;BME280;49073;42.352;23.808;2022-11-23T08:31:39;93456.91;;;8.57;96.62
62978;BME280;49073;42.352;23.808;2022-11-23T08:34:41;93463.22;;;8.49;96.78
62978;BME280;49073;42.352;23.808;2022-11-23T08:37:42;93439.00;;;8.50;97.03
62978;BME280;49073;42.352;23.808;2022-11-23T08:40:42;93418.56;;;8.54;97.00
62978;BME280;49073;42.352;23.808;2022-11-23T08:43:43;93417.50;;;8.66;98.06
62978;BME280;49073;42.352;23.808;2022-11-23T08:46:43;93423.59;;;8.78;97.52
62978;BME280;49073;42.352;23.808;2022-11-23T08:49:44;93436.84;;;8.70;95.87
62978;BME280;49073;42.352;23.808;2022-11-23T08:52:45;93439.44;;;8.59;94.90
62978;BME280;49073;42.352;23.808;2022-11-23T08:55:45;93439.69;;;8.40;94.96
62978;BME280;49073;42.352;23.808;2022-11-23T08:58:46;93434.34;;;8.36;95.15
62978;BME280;49073;42.352;23.808;2022-11-23T09:01:47;93437.50;;;8.49;95.14
62978;BME280;49073;42.352;23.808;2022-11-23T09:04:47;93431.56;;;8.74;94.37
62978;BME280;49073;42.352;23.808;2022-11-23T09:07:48;93439.13;;;8.68;93.82
62978;BME280;49073;42.352;23.808;2022-11-23T09:10:49;93441.78;;;8.72;93.40
62978;BME280;49073;42.352;23.808;2022-11-23T09:13:49;93440.81;;;9.02;92.93
62978;BME280;49073;42.352;23.808;2022-11-23T09:16:50;93441.53;;;9.02;92.61
62978;BME280;49073;42.352;23.808;2022-11-23T09:19:50;93440.81;;;9.06;92.26
62978;BME280;49073;42.352;23.808;2022-11-23T09:22:52;93432.53;;;9.29;91.07
62978;BME280;49073;42.352;23.808;2022-11-23T09:25:53;93434.81;;;9.34;90.37
62978;BME280;49073;42.352;23.808;2022-11-23T09:28:53;93425.28;;;9.19;89.75
62978;BME280;49073;42.352;23.808;2022-11-23T09:31:54;93424.53;;;9.18;91.28
62978;BME280;49073;42.352;23.808;2022-11-23T09:34:55;93415.78;;;9.10;92.11
62978;BME280;49073;42.352;23.808;2022-11-23T09:37:56;93418.44;;;9.10;91.80
62978;BME280;49073;42.352;23.808;2022-11-23T09:51:00;93419.59;;;9.24;92.14
62978;BME280;49073;42.352;23.808;2022-11-23T09:54:12;93430.69;;;9.44;91.01
62978;BME280;49073;42.352;23.808;2022-11-23T09:57:22;93425.72;;;9.35;90.27
62978;BME280;49073;42.352;23.808;2022-11-23T10:00:32;93428.00;;;9.37;90.77
62978;BME280;49073;42.352;23.808;2022-11-23T10:03:37;93409.75;;;9.35;90.29
62978;BME280;49073;42.352;23.808;2022-11-23T10:06:39;93408.31;;;9.63;90.08
62978;BME280;49073;42.352;23.808;2022-11-23T10:10:08;93418.94;;;9.59;89.38
62978;BME280;49073;42.352;23.808;2022-11-23T10:13:37;93410.91;;;9.41;89.47
62978;BME280;49073;42.352;23.808;2022-11-23T10:23:00;93428.44;;;9.57;88.57
62978;BME280;49073;42.352;23.808;2022-11-23T10:26:00;93417.78;;;9.53;88.87
62978;BME280;49073;42.352;23.808;2022-11-23T10:29:25;93409.84;;;9.64;89.46
62978;BME280;49073;42.352;23.808;2022-11-23T10:32:36;93409.47;;;9.91;88.29
62978;BME280;49073;42.352;23.808;2022-11-23T10:35:37;93411.34;;;9.80;87.55
62978;BME280;49073;42.352;23.808;2022-11-23T10:38:38;93402.22;;;9.70;88.50
62978;BME280;49073;42.352;23.808;2022-11-23T10:41:39;93398.81;;;10.02;88.30
62978;BME280;49073;42.352;23.808;2022-11-23T10:44:39;93409.09;;;10.00;86.71
62978;BME280;49073;42.352;23.808;2022-11-23T10:47:49;93429.97;;;9.80;87.03
62978;BME280;49073;42.352;23.808;2022-11-23T10:50:50;93416.31;;;9.78;87.90
62978;BME280;49073;42.352;23.808;2022-11-23T10:54:21;93408.34;;;10.14;87.67
62978;BME280;49073;42.352;23.808;2022-11-23T10:57:44;93407.16;;;10.51;85.40
62978;BME280;49073;42.352;23.808;2022-11-23T11:00:44;93406.06;;;10.41;83.82
62978;BME280;49073;42.352;23.808;2022-11-23T11:03:45;93409.84;;;10.18;83.48
62978;BME280;49073;42.352;23.808;2022-11-23T11:06:45;93399.19;;;10.26;83.98
62978;BME280;49073;42.352;23.808;2022-11-23T11:09:50;93398.06;;;10.48;83.69
62978;BME280;49073;42.352;23.808;2022-11-23T11:12:51;93397.53;;;10.97;81.55
62978;BME280;49073;42.352;23.808;2022-11-23T11:15:55;93393.34;;;10.89;79.86
62978;BME280;49073;42.352;23.808;2022-11-23T11:18:56;93380.66;;;11.18;79.93
62978;BME280;49073;42.352;23.808;2022-11-23T11:21:58;93370.59;;;11.52;79.20
62978;BME280;49073;42.352;23.808;2022-11-23T11:25:00;93369.41;;;11.56;77.74
62978;BME280;49073;42.352;23.808;2022-11-23T11:28:03;93367.91;;;11.52;77.15
62978;BME280;49073;42.352;23.808;2022-11-23T11:34:24;93365.06;;;11.77;76.50
62978;BME280;49073;42.352;23.808;2022-11-23T11:37:36;93365.28;;;12.04;75.36
62978;BME280;49073;42.352;23.808;2022-11-23T11:40:40;93367.53;;;12.06;74.76
62978;BME280;49073;42.352;23.808;2022-11-23T11:43:49;93365.69;;;12.41;74.77
62978;BME280;49073;42.352;23.808;2022-11-23T11:47:20;93370.22;;;12.48;72.72
62978;BME280;49073;42.352;23.808;2022-11-23T11:50:29;93367.25;;;12.39;72.82
62978;BME280;49073;42.352;23.808;2022-11-23T11:54:00;93358.56;;;12.27;73.09
62978;BME280;49073;42.352;23.808;2022-11-23T11:57:05;93345.53;;;11.91;74.51
62978;BME280;49073;42.352;23.808;2022-11-23T12:00:13;93347.31;;;12.08;73.64
62978;BME280;49073;42.352;23.808;2022-11-23T12:03:43;93338.69;;;11.86;74.12
62978;BME280;49073;42.352;23.808;2022-11-23T12:06:52;93351.75;;;11.73;75.27
62978;BME280;49073;42.352;23.808;2022-11-23T12:09:59;93359.75;;;11.73;75.48
62978;BME280;49073;42.352;23.808;2022-11-23T12:13:02;93354.63;;;11.97;75.39
62978;BME280;49073;42.352;23.808;2022-11-23T12:19:56;93355.22;;;12.58;72.71
62978;BME280;49073;42.352;23.808;2022-11-23T12:26:10;93346.81;;;12.59;72.13
62978;BME280;49073;42.352;23.808;2022-11-23T12:29:48;93343.66;;;12.68;71.84
62978;BME280;49073;42.352;23.808;2022-11-23T12:43:12;93374.34;;;12.52;72.73
62978;BME280;49073;42.352;23.808;2022-11-23T12:49:53;93389.00;;;12.41;72.50
62978;BME280;49073;42.352;23.808;2022-11-23T12:57:21;93382.81;;;11.49;66.62
62978;BME280;49073;42.352;23.808;2022-11-23T13:00:29;93386.63;;;11.41;67.31
62978;BME280;49073;42.352;23.808;2022-11-23T13:04:07;93390.03;;;11.48;67.09
62978;BME280;49073;42.352;23.808;2022-11-23T13:10:39;93391.44;;;11.68;67.19
62978;BME280;49073;42.352;23.808;2022-11-23T13:14:02;93386.59;;;11.48;67.82
62978;BME280;49073;42.352;23.808;2022-11-23T13:24:00;93377.28;;;11.74;66.03
62978;BME280;49073;42.352;23.808;2022-11-23T13:30:37;93374.22;;;11.76;62.30
62978;BME280;49073;42.352;23.808;2022-11-23T13:33:38;93381.81;;;11.77;63.47
62978;BME280;49073;42.352;23.808;2022-11-23T13:36:40;93379.94;;;11.74;64.67
62978;BME280;49073;42.352;23.808;2022-11-23T13:46:21;93381.59;;;11.57;66.52
62978;BME280;49073;42.352;23.808;2022-11-23T13:49:45;93395.59;;;11.76;66.13
62978;BME280;49073;42.352;23.808;2022-11-23T13:52:50;93395.22;;;11.74;63.27
62978;BME280;49073;42.352;23.808;2022-11-23T13:55:52;93392.97;;;11.69;62.69
62978;BME280;49073;42.352;23.808;2022-11-23T13:58:57;93389.22;;;11.59;63.57
62978;BME280;49073;42.352;23.808;2022-11-23T14:05:51;93399.00;;;11.76;62.02
62978;BME280;49073;42.352;23.808;2022-11-23T14:12:04;93424.16;;;11.75;61.66
62978;BME280;49073;42.352;23.808;2022-11-23T14:15:19;93416.34;;;11.46;65.68
62978;BME280;49073;42.352;23.808;2022-11-23T14:41:35;93450.09;;;10.89;71.79
62978;BME280;49073;42.352;23.808;2022-11-23T14:44:39;93436.03;;;10.78;72.53
62978;BME280;49073;42.352;23.808;2022-11-23T14:47:40;93438.28;;;10.87;73.40
62978;BME280;49073;42.352;23.808;2022-11-23T14:50:41;93446.66;;;10.96;72.81
62978;BME280;49073;42.352;23.808;2022-11-23T14:53:45;93445.16;;;10.81;72.91
62978;BME280;49073;42.352;23.808;2022-11-23T14:56:50;93439.13;;;10.66;74.08
62978;BME280;49073;42.352;23.808;2022-11-23T14:59:58;93440.63;;;10.52;74.37
62978;BME280;49073;42.352;23.808;2022-11-23T15:03:14;93444.47;;;10.44;74.76
62978;BME280;49073;42.352;23.808;2022-11-23T15:06:17;93452.81;;;10.10;74.54
62978;BME280;49073;42.352;23.808;2022-11-23T15:12:49;93445.97;;;9.83;73.59
62978;BME280;49073;42.352;23.808;2022-11-23T15:15:52;93453.50;;;9.59;73.96
62978;BME280;49073;42.352;23.808;2022-11-23T15:18:54;93448.19;;;9.49;73.96
62978;BME280;49073;42.352;23.808;2022-11-23T15:21:55;93446.22;;;9.31;74.67
62978;BME280;49073;42.352;23.808;2022-11-23T15:25:04;93451.13;;;9.22;74.95
62978;BME280;49073;42.352;23.808;2022-11-23T15:28:15;93440.06;;;9.12;75.86
62978;BME280;49073;42.352;23.808;2022-11-23T15:34:21;93455.16;;;8.86;77.31
62978;BME280;49073;42.352;23.808;2022-11-23T15:37:23;93458.94;;;8.85;76.63
62978;BME280;49073;42.352;23.808;2022-11-23T15:40:28;93456.91;;;8.61;78.20
62978;BME280;49073;42.352;23.808;2022-11-23T15:43:29;93459.94;;;8.59;78.23
62978;BME280;49073;42.352;23.808;2022-11-23T15:46:35;93455.75;;;8.58;78.03
62978;BME280;49073;42.352;23.808;2022-11-23T15:49:38;93455.69;;;8.51;78.33
62978;BME280;49073;42.352;23.808;2022-11-23T15:52:41;93465.50;;;8.43;78.63
62978;BME280;49073;42.352;23.808;2022-11-23T15:55:42;93463.97;;;8.42;78.36
62978;BME280;49073;42.352;23.808;2022-11-23T15:58:45;93473.75;;;8.34;79.12
62978;BME280;49073;42.352;23.808;2022-11-23T16:01:47;93472.22;;;8.29;79.30
62978;BME280;49073;42.352;23.808;2022-11-23T16:08:22;93475.03;;;8.03;80.43
62978;BME280;49073;42.352;23.808;2022-11-23T16:11:30;93481.13;;;8.07;79.68
62978;BME280;49073;42.352;23.808;2022-11-23T16:14:31;93469.66;;;7.95;78.71
62978;BME280;49073;42.352;23.808;2022-11-23T16:17:34;93475.50;;;7.70;78.97
62978;BME280;49073;42.352;23.808;2022-11-23T16:20:35;93482.16;;;7.53;79.60
62978;BME280;49073;42.352;23.808;2022-11-23T16:23:46;93484.25;;;7.75;79.07
62978;BME280;49073;42.352;23.808;2022-11-23T16:26:48;93481.84;;;7.62;78.53
62978;BME280;49073;42.352;23.808;2022-11-23T16:29:50;93479.19;;;7.62;78.42
62978;BME280;49073;42.352;23.808;2022-11-23T16:32:51;93493.16;;;7.55;78.70
62978;BME280;49073;42.352;23.808;2022-11-23T16:35:51;93489.22;;;7.42;79.96
62978;BME280;49073;42.352;23.808;2022-11-23T16:38:53;93490.31;;;7.37;79.22
62978;BME280;49073;42.352;23.808;2022-11-23T16:41:54;93495.97;;;7.05;80.01
62978;BME280;49073;42.352;23.808;2022-11-23T16:44:54;93493.75;;;7.07;80.25
62978;BME280;49073;42.352;23.808;2022-11-23T16:47:57;93492.97;;;7.07;80.66
62978;BME280;49073;42.352;23.808;2022-11-23T16:50:59;93503.41;;;6.96;80.21
62978;BME280;49073;42.352;23.808;2022-11-23T16:54:00;93518.31;;;6.77;81.21
62978;BME280;49073;42.352;23.808;2022-11-23T16:57:01;93521.97;;;6.96;81.30
62978;BME280;49073;42.352;23.808;2022-11-23T17:00:10;93523.84;;;6.95;79.82
62978;BME280;49073;42.352;23.808;2022-11-23T17:03:16;93524.63;;;6.69;81.54
62978;BME280;49073;42.352;23.808;2022-11-23T17:06:18;93527.63;;;6.67;80.55
62978;BME280;49073;42.352;23.808;2022-11-23T17:09:22;93524.94;;;6.64;79.75
62978;BME280;49073;42.352;23.808;2022-11-23T17:12:23;93533.06;;;6.51;79.31
62978;BME280;49073;42.352;23.808;2022-11-23T17:15:23;93529.78;;;6.35;80.25
62978;BME280;49073;42.352;23.808;2022-11-23T17:18:24;93530.44;;;6.28;81.67
62978;BME280;49073;42.352;23.808;2022-11-23T17:21:24;93534.22;;;6.27;80.50
62978;BME280;49073;42.352;23.808;2022-11-23T17:24:25;93535.66;;;6.24;80.81
62978;BME280;49073;42.352;23.808;2022-11-23T17:27:25;93527.63;;;6.17;81.06
62978;BME280;49073;42.352;23.808;2022-11-23T17:30:26;93521.44;;;6.09;81.90
62978;BME280;49073;42.352;23.808;2022-11-23T17:33:27;93524.75;;;6.03;81.59
62978;BME280;49073;42.352;23.808;2022-11-23T17:36:28;93544.97;;;5.95;82.32
62978;BME280;49073;42.352;23.808;2022-11-23T17:39:30;93546.88;;;5.94;84.16
62978;BME280;49073;42.352;23.808;2022-11-23T17:42:30;93545.78;;;5.99;85.99
62978;BME280;49073;42.352;23.808;2022-11-23T17:45:31;93542.19;;;6.07;84.43
62978;BME280;49073;42.352;23.808;2022-11-23T17:48:32;93547.53;;;6.11;81.57
62978;BME280;49073;42.352;23.808;2022-11-23T17:51:36;93551.09;;;5.99;81.04
62978;BME280;49073;42.352;23.808;2022-11-23T17:54:37;93550.34;;;5.99;81.62